Terminal Aerodrome Forecast
Issued by NWS Blacksburg, VA

Current Version | Previous Version | Graphics & Text | Print | Product List | Glossary On
Versions: 1 2 3 4 5 6 7 8 9 10 11 12 13 14 15 16 17 18 19 20 21 22 23 24 25 26 27 28 29 30 31 32 33 34 35 36 37 38 39
000
FTUS41 KRNK 172321
TAFBLF
TAF
KBLF 172321Z 1800/1824 28008KT P6SM SCT025 OVC250
     FM180300 29008KT P6SM SCT009 OVC015
     FM180800 30007KT P6SM OVC007
     FM181400 29009KT P6SM SCT007 OVC020
     FM181600 29007KT P6SM FEW025 BKN100=

USA.gov is the U.S. government's official web portal to all federal, state and local government web resources and services.